sensor_id;sensor_type;location;lat;lon;timestamp;P1;durP1;ratioP1;P2;durP2;ratioP2
51248;SDS011;39642;47.556;18.728;2022-12-24T00:01:14;22.17;;;13.50;;
51248;SDS011;39642;47.556;18.728;2022-12-24T00:03:40;23.95;;;14.07;;
51248;SDS011;39642;47.556;18.728;2022-12-24T00:06:06;23.90;;;13.65;;
51248;SDS011;39642;47.556;18.728;2022-12-24T00:08:33;24.75;;;13.90;;
51248;SDS011;39642;47.556;18.728;2022-12-24T00:10:59;22.05;;;13.45;;
51248;SDS011;39642;47.556;18.728;2022-12-24T00:13:25;22.98;;;13.73;;
51248;SDS011;39642;47.556;18.728;2022-12-24T00:15:51;22.55;;;13.88;;
51248;SDS011;39642;47.556;18.728;2022-12-24T00:18:17;24.00;;;13.95;;
51248;SDS011;39642;47.556;18.728;2022-12-24T00:20:46;22.15;;;13.05;;
51248;SDS011;39642;47.556;18.728;2022-12-24T00:23:13;21.40;;;12.77;;
51248;SDS011;39642;47.556;18.728;2022-12-24T00:25:39;24.42;;;14.45;;
51248;SDS011;39642;47.556;18.728;2022-12-24T00:28:05;23.27;;;14.02;;
51248;SDS011;39642;47.556;18.728;2022-12-24T00:30:31;23.42;;;13.82;;
51248;SDS011;39642;47.556;18.728;2022-12-24T00:32:57;22.77;;;13.50;;
51248;SDS011;39642;47.556;18.728;2022-12-24T00:35:23;21.87;;;12.82;;
51248;SDS011;39642;47.556;18.728;2022-12-24T00:37:49;22.42;;;13.27;;
51248;SDS011;39642;47.556;18.728;2022-12-24T00:40:16;21.83;;;13.13;;
51248;SDS011;39642;47.556;18.728;2022-12-24T00:42:43;22.75;;;12.95;;
51248;SDS011;39642;47.556;18.728;2022-12-24T00:45:09;23.98;;;13.70;;
51248;SDS011;39642;47.556;18.728;2022-12-24T00:47:36;23.17;;;13.75;;
51248;SDS011;39642;47.556;18.728;2022-12-24T00:50:02;21.95;;;13.30;;
51248;SDS011;39642;47.556;18.728;2022-12-24T00:52:29;22.58;;;13.62;;
51248;SDS011;39642;47.556;18.728;2022-12-24T00:54:55;22.13;;;12.85;;
51248;SDS011;39642;47.556;18.728;2022-12-24T00:57:20;20.65;;;12.55;;
51248;SDS011;39642;47.556;18.728;2022-12-24T00:59:46;22.05;;;12.82;;
51248;SDS011;39642;47.556;18.728;2022-12-24T01:02:12;23.55;;;13.52;;
51248;SDS011;39642;47.556;18.728;2022-12-24T01:04:38;22.83;;;13.18;;
51248;SDS011;39642;47.556;18.728;2022-12-24T01:07:22;23.38;;;13.57;;
51248;SDS011;39642;47.556;18.728;2022-12-24T01:09:48;20.55;;;12.43;;
51248;SDS011;39642;47.556;18.728;2022-12-24T01:12:14;22.37;;;13.15;;
51248;SDS011;39642;47.556;18.728;2022-12-24T01:14:40;21.37;;;12.65;;
51248;SDS011;39642;47.556;18.728;2022-12-24T01:17:06;21.17;;;12.75;;
51248;SDS011;39642;47.556;18.728;2022-12-24T01:19:32;21.35;;;12.73;;
51248;SDS011;39642;47.556;18.728;2022-12-24T01:21:58;20.33;;;12.60;;
51248;SDS011;39642;47.556;18.728;2022-12-24T01:24:24;21.65;;;12.63;;
51248;SDS011;39642;47.556;18.728;2022-12-24T01:26:50;21.58;;;12.57;;
51248;SDS011;39642;47.556;18.728;2022-12-24T01:29:16;21.92;;;12.93;;
51248;SDS011;39642;47.556;18.728;2022-12-24T01:31:41;21.00;;;12.05;;
51248;SDS011;39642;47.556;18.728;2022-12-24T01:34:07;20.45;;;12.18;;
51248;SDS011;39642;47.556;18.728;2022-12-24T01:36:34;21.17;;;12.68;;
51248;SDS011;39642;47.556;18.728;2022-12-24T01:39:00;21.62;;;12.45;;
51248;SDS011;39642;47.556;18.728;2022-12-24T01:41:28;21.52;;;12.18;;
51248;SDS011;39642;47.556;18.728;2022-12-24T01:49:31;21.67;;;12.88;;
51248;SDS011;39642;47.556;18.728;2022-12-24T01:52:00;20.65;;;12.70;;
51248;SDS011;39642;47.556;18.728;2022-12-24T01:57:11;21.08;;;12.50;;
51248;SDS011;39642;47.556;18.728;2022-12-24T01:59:43;21.35;;;12.63;;
51248;SDS011;39642;47.556;18.728;2022-12-24T02:02:11;20.12;;;11.77;;
51248;SDS011;39642;47.556;18.728;2022-12-24T02:04:41;20.40;;;12.40;;
51248;SDS011;39642;47.556;18.728;2022-12-24T02:07:16;21.30;;;12.37;;
51248;SDS011;39642;47.556;18.728;2022-12-24T02:09:44;20.50;;;12.00;;
51248;SDS011;39642;47.556;18.728;2022-12-24T02:12:11;21.45;;;12.35;;
51248;SDS011;39642;47.556;18.728;2022-12-24T02:14:37;20.12;;;12.25;;
51248;SDS011;39642;47.556;18.728;2022-12-24T02:25:15;20.12;;;12.10;;
51248;SDS011;39642;47.556;18.728;2022-12-24T02:30:42;20.62;;;12.02;;
51248;SDS011;39642;47.556;18.728;2022-12-24T02:33:23;19.45;;;11.48;;
51248;SDS011;39642;47.556;18.728;2022-12-24T02:35:58;20.00;;;11.65;;
51248;SDS011;39642;47.556;18.728;2022-12-24T02:41:20;20.25;;;12.10;;
51248;SDS011;39642;47.556;18.728;2022-12-24T02:43:50;21.70;;;12.48;;
51248;SDS011;39642;47.556;18.728;2022-12-24T02:46:19;20.42;;;11.55;;
51248;SDS011;39642;47.556;18.728;2022-12-24T02:48:48;19.98;;;11.35;;
51248;SDS011;39642;47.556;18.728;2022-12-24T02:51:15;20.23;;;12.40;;
51248;SDS011;39642;47.556;18.728;2022-12-24T02:53:41;21.45;;;11.55;;
51248;SDS011;39642;47.556;18.728;2022-12-24T02:59:08;20.65;;;12.23;;
51248;SDS011;39642;47.556;18.728;2022-12-24T03:01:47;19.27;;;11.53;;
51248;SDS011;39642;47.556;18.728;2022-12-24T03:07:31;20.58;;;11.98;;
51248;SDS011;39642;47.556;18.728;2022-12-24T03:12:58;19.60;;;11.77;;
51248;SDS011;39642;47.556;18.728;2022-12-24T03:15:29;21.75;;;12.35;;
51248;SDS011;39642;47.556;18.728;2022-12-24T03:17:57;21.00;;;12.05;;
51248;SDS011;39642;47.556;18.728;2022-12-24T03:20:29;18.73;;;11.45;;
51248;SDS011;39642;47.556;18.728;2022-12-24T03:25:25;20.02;;;11.77;;
51248;SDS011;39642;47.556;18.728;2022-12-24T03:27:52;22.77;;;12.05;;
51248;SDS011;39642;47.556;18.728;2022-12-24T03:30:20;20.37;;;11.93;;
51248;SDS011;39642;47.556;18.728;2022-12-24T03:32:45;19.85;;;11.45;;
51248;SDS011;39642;47.556;18.728;2022-12-24T03:35:12;19.45;;;11.77;;
51248;SDS011;39642;47.556;18.728;2022-12-24T03:37:38;20.62;;;11.65;;
51248;SDS011;39642;47.556;18.728;2022-12-24T03:40:05;21.33;;;12.32;;
51248;SDS011;39642;47.556;18.728;2022-12-24T03:42:31;19.55;;;11.50;;
51248;SDS011;39642;47.556;18.728;2022-12-24T03:44:57;19.30;;;11.65;;
51248;SDS011;39642;47.556;18.728;2022-12-24T03:47:23;19.08;;;11.65;;
51248;SDS011;39642;47.556;18.728;2022-12-24T03:49:49;19.42;;;11.43;;
51248;SDS011;39642;47.556;18.728;2022-12-24T03:52:15;19.90;;;11.77;;
51248;SDS011;39642;47.556;18.728;2022-12-24T03:54:41;21.50;;;11.75;;
51248;SDS011;39642;47.556;18.728;2022-12-24T03:57:06;19.17;;;11.18;;
51248;SDS011;39642;47.556;18.728;2022-12-24T03:59:32;21.35;;;11.82;;
51248;SDS011;39642;47.556;18.728;2022-12-24T04:01:58;20.70;;;11.77;;
51248;SDS011;39642;47.556;18.728;2022-12-24T04:04:24;18.77;;;11.27;;
51248;SDS011;39642;47.556;18.728;2022-12-24T04:06:50;20.10;;;11.25;;
51248;SDS011;39642;47.556;18.728;2022-12-24T04:09:16;21.55;;;12.45;;
51248;SDS011;39642;47.556;18.728;2022-12-24T04:11:42;20.12;;;12.07;;
51248;SDS011;39642;47.556;18.728;2022-12-24T04:14:08;20.30;;;11.95;;
51248;SDS011;39642;47.556;18.728;2022-12-24T04:16:33;19.08;;;11.27;;
51248;SDS011;39642;47.556;18.728;2022-12-24T04:18:59;18.62;;;11.07;;
51248;SDS011;39642;47.556;18.728;2022-12-24T04:21:25;20.15;;;11.50;;
51248;SDS011;39642;47.556;18.728;2022-12-24T04:23:51;18.58;;;10.68;;
51248;SDS011;39642;47.556;18.728;2022-12-24T04:26:17;21.35;;;11.50;;
51248;SDS011;39642;47.556;18.728;2022-12-24T04:28:43;20.10;;;11.70;;
51248;SDS011;39642;47.556;18.728;2022-12-24T04:31:13;20.33;;;11.15;;
51248;SDS011;39642;47.556;18.728;2022-12-24T04:33:40;16.98;;;10.60;;
51248;SDS011;39642;47.556;18.728;2022-12-24T04:36:07;18.90;;;11.12;;
51248;SDS011;39642;47.556;18.728;2022-12-24T04:38:36;20.23;;;11.95;;
51248;SDS011;39642;47.556;18.728;2022-12-24T04:41:03;17.58;;;10.55;;
51248;SDS011;39642;47.556;18.728;2022-12-24T04:43:33;19.15;;;10.93;;
51248;SDS011;39642;47.556;18.728;2022-12-24T04:46:03;18.83;;;11.45;;
51248;SDS011;39642;47.556;18.728;2022-12-24T04:48:30;19.87;;;11.25;;
51248;SDS011;39642;47.556;18.728;2022-12-24T04:50:57;18.95;;;11.35;;
51248;SDS011;39642;47.556;18.728;2022-12-24T04:53:25;19.40;;;11.55;;
51248;SDS011;39642;47.556;18.728;2022-12-24T04:55:50;20.02;;;11.63;;
51248;SDS011;39642;47.556;18.728;2022-12-24T04:58:16;19.85;;;11.25;;
51248;SDS011;39642;47.556;18.728;2022-12-24T05:00:42;19.65;;;11.07;;
51248;SDS011;39642;47.556;18.728;2022-12-24T05:03:08;20.37;;;11.52;;
51248;SDS011;39642;47.556;18.728;2022-12-24T05:05:34;21.33;;;11.68;;
51248;SDS011;39642;47.556;18.728;2022-12-24T05:08:00;20.00;;;11.70;;
51248;SDS011;39642;47.556;18.728;2022-12-24T05:10:26;18.98;;;10.93;;
51248;SDS011;39642;47.556;18.728;2022-12-24T05:12:52;21.37;;;11.68;;
51248;SDS011;39642;47.556;18.728;2022-12-24T05:15:18;20.15;;;10.98;;
51248;SDS011;39642;47.556;18.728;2022-12-24T05:17:44;18.80;;;11.25;;
51248;SDS011;39642;47.556;18.728;2022-12-24T05:20:10;18.80;;;11.00;;
51248;SDS011;39642;47.556;18.728;2022-12-24T05:22:36;19.15;;;10.70;;
51248;SDS011;39642;47.556;18.728;2022-12-24T05:25:20;19.77;;;11.15;;
51248;SDS011;39642;47.556;18.728;2022-12-24T05:28:05;19.48;;;11.27;;
51248;SDS011;39642;47.556;18.728;2022-12-24T05:30:31;19.75;;;11.20;;
51248;SDS011;39642;47.556;18.728;2022-12-24T05:32:57;18.90;;;11.25;;
51248;SDS011;39642;47.556;18.728;2022-12-24T05:35:23;19.67;;;10.07;;
51248;SDS011;39642;47.556;18.728;2022-12-24T05:37:48;18.42;;;11.07;;
51248;SDS011;39642;47.556;18.728;2022-12-24T05:40:14;17.98;;;10.50;;
51248;SDS011;39642;47.556;18.728;2022-12-24T05:42:40;19.60;;;10.82;;
51248;SDS011;39642;47.556;18.728;2022-12-24T05:45:06;18.55;;;10.18;;
51248;SDS011;39642;47.556;18.728;2022-12-24T05:47:33;20.42;;;10.95;;
51248;SDS011;39642;47.556;18.728;2022-12-24T05:49:58;20.70;;;11.15;;
51248;SDS011;39642;47.556;18.728;2022-12-24T05:52:24;19.48;;;11.05;;
51248;SDS011;39642;47.556;18.728;2022-12-24T05:54:50;19.15;;;11.15;;
51248;SDS011;39642;47.556;18.728;2022-12-24T05:57:16;19.12;;;11.18;;
51248;SDS011;39642;47.556;18.728;2022-12-24T05:59:42;18.77;;;10.50;;
51248;SDS011;39642;47.556;18.728;2022-12-24T06:02:08;21.33;;;11.73;;
51248;SDS011;39642;47.556;18.728;2022-12-24T06:04:34;18.95;;;10.98;;
51248;SDS011;39642;47.556;18.728;2022-12-24T06:07:00;19.90;;;10.95;;
51248;SDS011;39642;47.556;18.728;2022-12-24T06:09:25;19.30;;;11.60;;
51248;SDS011;39642;47.556;18.728;2022-12-24T06:11:51;19.52;;;11.48;;
51248;SDS011;39642;47.556;18.728;2022-12-24T06:14:17;18.30;;;10.48;;
51248;SDS011;39642;47.556;18.728;2022-12-24T06:16:43;18.98;;;10.73;;
51248;SDS011;39642;47.556;18.728;2022-12-24T06:19:09;19.55;;;11.30;;
51248;SDS011;39642;47.556;18.728;2022-12-24T06:21:35;18.75;;;10.68;;
51248;SDS011;39642;47.556;18.728;2022-12-24T06:24:00;18.65;;;10.98;;
51248;SDS011;39642;47.556;18.728;2022-12-24T06:26:26;20.05;;;11.38;;
51248;SDS011;39642;47.556;18.728;2022-12-24T06:28:52;19.12;;;11.00;;
51248;SDS011;39642;47.556;18.728;2022-12-24T06:31:19;19.40;;;11.27;;
51248;SDS011;39642;47.556;18.728;2022-12-24T06:33:46;21.08;;;11.00;;
51248;SDS011;39642;47.556;18.728;2022-12-24T06:36:14;19.95;;;11.45;;
51248;SDS011;39642;47.556;18.728;2022-12-24T06:38:43;17.87;;;10.98;;
51248;SDS011;39642;47.556;18.728;2022-12-24T06:41:13;20.35;;;10.85;;
51248;SDS011;39642;47.556;18.728;2022-12-24T06:43:46;19.08;;;10.95;;
51248;SDS011;39642;47.556;18.728;2022-12-24T06:46:15;19.48;;;11.05;;
51248;SDS011;39642;47.556;18.728;2022-12-24T06:48:45;19.52;;;10.70;;
51248;SDS011;39642;47.556;18.728;2022-12-24T06:51:12;19.17;;;11.12;;
51248;SDS011;39642;47.556;18.728;2022-12-24T06:53:39;19.75;;;10.32;;
51248;SDS011;39642;47.556;18.728;2022-12-24T06:56:06;18.12;;;10.70;;
51248;SDS011;39642;47.556;18.728;2022-12-24T06:58:34;17.90;;;10.68;;
51248;SDS011;39642;47.556;18.728;2022-12-24T07:01:01;20.02;;;11.50;;
51248;SDS011;39642;47.556;18.728;2022-12-24T07:03:28;18.35;;;10.65;;
51248;SDS011;39642;47.556;18.728;2022-12-24T07:05:54;19.35;;;11.35;;
51248;SDS011;39642;47.556;18.728;2022-12-24T07:08:20;18.05;;;10.52;;
51248;SDS011;39642;47.556;18.728;2022-12-24T07:10:49;20.02;;;11.55;;
51248;SDS011;39642;47.556;18.728;2022-12-24T07:13:16;17.67;;;10.10;;
51248;SDS011;39642;47.556;18.728;2022-12-24T07:15:42;17.95;;;10.40;;
51248;SDS011;39642;47.556;18.728;2022-12-24T07:18:08;18.17;;;9.73;;
51248;SDS011;39642;47.556;18.728;2022-12-24T07:20:34;17.95;;;10.00;;
51248;SDS011;39642;47.556;18.728;2022-12-24T07:23:00;17.80;;;10.35;;
51248;SDS011;39642;47.556;18.728;2022-12-24T07:25:26;18.67;;;10.32;;
51248;SDS011;39642;47.556;18.728;2022-12-24T07:27:52;17.23;;;10.18;;
51248;SDS011;39642;47.556;18.728;2022-12-24T07:30:17;17.37;;;10.10;;
51248;SDS011;39642;47.556;18.728;2022-12-24T07:32:43;18.10;;;9.70;;
51248;SDS011;39642;47.556;18.728;2022-12-24T07:35:09;17.23;;;10.35;;
51248;SDS011;39642;47.556;18.728;2022-12-24T07:37:35;18.58;;;10.23;;
51248;SDS011;39642;47.556;18.728;2022-12-24T07:40:01;17.48;;;9.90;;
51248;SDS011;39642;47.556;18.728;2022-12-24T07:42:30;16.60;;;9.75;;
51248;SDS011;39642;47.556;18.728;2022-12-24T07:44:56;17.48;;;10.20;;
51248;SDS011;39642;47.556;18.728;2022-12-24T07:47:22;17.62;;;9.82;;
51248;SDS011;39642;47.556;18.728;2022-12-24T07:49:48;17.85;;;9.55;;
51248;SDS011;39642;47.556;18.728;2022-12-24T07:52:14;17.85;;;10.02;;
51248;SDS011;39642;47.556;18.728;2022-12-24T07:54:40;18.02;;;9.73;;
51248;SDS011;39642;47.556;18.728;2022-12-24T07:57:06;17.50;;;9.27;;
51248;SDS011;39642;47.556;18.728;2022-12-24T07:59:32;16.87;;;9.40;;
51248;SDS011;39642;47.556;18.728;2022-12-24T08:01:58;18.73;;;10.00;;
51248;SDS011;39642;47.556;18.728;2022-12-24T08:04:24;15.95;;;9.23;;
51248;SDS011;39642;47.556;18.728;2022-12-24T08:06:50;16.70;;;9.65;;
51248;SDS011;39642;47.556;18.728;2022-12-24T08:09:16;16.98;;;9.27;;
51248;SDS011;39642;47.556;18.728;2022-12-24T08:11:41;17.92;;;9.75;;
51248;SDS011;39642;47.556;18.728;2022-12-24T08:14:07;15.10;;;8.40;;
51248;SDS011;39642;47.556;18.728;2022-12-24T08:16:33;16.75;;;8.95;;
51248;SDS011;39642;47.556;18.728;2022-12-24T08:18:59;15.60;;;8.18;;
51248;SDS011;39642;47.556;18.728;2022-12-24T08:21:25;16.73;;;8.40;;
51248;SDS011;39642;47.556;18.728;2022-12-24T08:23:51;15.65;;;8.63;;
51248;SDS011;39642;47.556;18.728;2022-12-24T08:26:19;15.85;;;8.68;;
51248;SDS011;39642;47.556;18.728;2022-12-24T08:28:45;16.05;;;8.35;;
51248;SDS011;39642;47.556;18.728;2022-12-24T08:31:10;14.68;;;7.80;;
51248;SDS011;39642;47.556;18.728;2022-12-24T08:33:36;15.60;;;8.20;;
51248;SDS011;39642;47.556;18.728;2022-12-24T08:36:02;15.85;;;8.57;;
51248;SDS011;39642;47.556;18.728;2022-12-24T08:38:28;15.32;;;8.07;;
51248;SDS011;39642;47.556;18.728;2022-12-24T08:40:54;16.12;;;8.68;;
51248;SDS011;39642;47.556;18.728;2022-12-24T08:43:21;15.90;;;8.27;;
51248;SDS011;39642;47.556;18.728;2022-12-24T08:45:47;15.35;;;8.15;;
51248;SDS011;39642;47.556;18.728;2022-12-24T08:48:16;15.70;;;8.07;;
51248;SDS011;39642;47.556;18.728;2022-12-24T08:50:42;16.25;;;8.43;;
51248;SDS011;39642;47.556;18.728;2022-12-24T08:53:09;15.15;;;7.70;;
51248;SDS011;39642;47.556;18.728;2022-12-24T08:55:35;15.65;;;8.38;;
51248;SDS011;39642;47.556;18.728;2022-12-24T08:58:01;15.23;;;7.80;;
51248;SDS011;39642;47.556;18.728;2022-12-24T09:00:27;15.02;;;7.68;;
51248;SDS011;39642;47.556;18.728;2022-12-24T09:02:54;15.80;;;7.97;;
51248;SDS011;39642;47.556;18.728;2022-12-24T09:05:21;16.00;;;8.00;;
51248;SDS011;39642;47.556;18.728;2022-12-24T09:07:47;15.57;;;7.80;;
51248;SDS011;39642;47.556;18.728;2022-12-24T09:10:13;15.60;;;8.07;;
51248;SDS011;39642;47.556;18.728;2022-12-24T09:12:39;15.75;;;8.15;;
51248;SDS011;39642;47.556;18.728;2022-12-24T09:15:05;14.15;;;7.82;;
51248;SDS011;39642;47.556;18.728;2022-12-24T09:17:33;15.30;;;7.78;;
51248;SDS011;39642;47.556;18.728;2022-12-24T09:19:59;14.65;;;7.78;;
51248;SDS011;39642;47.556;18.728;2022-12-24T09:22:25;14.80;;;8.18;;
51248;SDS011;39642;47.556;18.728;2022-12-24T09:24:54;15.68;;;7.45;;
51248;SDS011;39642;47.556;18.728;2022-12-24T09:27:20;15.68;;;8.05;;
51248;SDS011;39642;47.556;18.728;2022-12-24T09:29:46;16.17;;;8.02;;
51248;SDS011;39642;47.556;18.728;2022-12-24T09:32:12;14.70;;;7.45;;
51248;SDS011;39642;47.556;18.728;2022-12-24T09:34:38;16.42;;;7.70;;
51248;SDS011;39642;47.556;18.728;2022-12-24T09:37:04;14.98;;;8.13;;
51248;SDS011;39642;47.556;18.728;2022-12-24T09:39:30;14.52;;;7.20;;
51248;SDS011;39642;47.556;18.728;2022-12-24T09:47:28;15.20;;;7.75;;
51248;SDS011;39642;47.556;18.728;2022-12-24T09:50:00;14.43;;;7.25;;
51248;SDS011;39642;47.556;18.728;2022-12-24T09:52:34;13.98;;;7.40;;
51248;SDS011;39642;47.556;18.728;2022-12-24T09:55:04;15.55;;;7.25;;
51248;SDS011;39642;47.556;18.728;2022-12-24T09:57:40;13.75;;;6.90;;
51248;SDS011;39642;47.556;18.728;2022-12-24T10:00:28;14.60;;;7.03;;
51248;SDS011;39642;47.556;18.728;2022-12-24T10:02:56;14.45;;;7.22;;
51248;SDS011;39642;47.556;18.728;2022-12-24T10:05:25;15.27;;;7.55;;
51248;SDS011;39642;47.556;18.728;2022-12-24T10:10:52;14.10;;;7.32;;
51248;SDS011;39642;47.556;18.728;2022-12-24T10:13:42;13.98;;;7.30;;
51248;SDS011;39642;47.556;18.728;2022-12-24T10:27:22;13.25;;;6.68;;
51248;SDS011;39642;47.556;18.728;2022-12-24T10:29:57;13.80;;;7.20;;
51248;SDS011;39642;47.556;18.728;2022-12-24T10:32:30;13.25;;;6.93;;
51248;SDS011;39642;47.556;18.728;2022-12-24T10:35:05;13.60;;;6.40;;
51248;SDS011;39642;47.556;18.728;2022-12-24T10:37:33;13.80;;;7.05;;
51248;SDS011;39642;47.556;18.728;2022-12-24T10:39:59;13.13;;;6.70;;
51248;SDS011;39642;47.556;18.728;2022-12-24T10:42:31;13.45;;;6.70;;
51248;SDS011;39642;47.556;18.728;2022-12-24T10:45:03;13.48;;;6.90;;
51248;SDS011;39642;47.556;18.728;2022-12-24T10:47:32;13.80;;;6.30;;
51248;SDS011;39642;47.556;18.728;2022-12-24T10:50:38;13.68;;;6.57;;
51248;SDS011;39642;47.556;18.728;2022-12-24T10:53:13;13.70;;;6.43;;
51248;SDS011;39642;47.556;18.728;2022-12-24T10:55:46;13.30;;;6.60;;
51248;SDS011;39642;47.556;18.728;2022-12-24T10:58:17;12.80;;;6.12;;
51248;SDS011;39642;47.556;18.728;2022-12-24T11:00:50;13.57;;;6.50;;
51248;SDS011;39642;47.556;18.728;2022-12-24T11:05:43;14.07;;;6.65;;
51248;SDS011;39642;47.556;18.728;2022-12-24T11:10:44;12.75;;;6.30;;
51248;SDS011;39642;47.556;18.728;2022-12-24T11:13:21;13.57;;;5.97;;
51248;SDS011;39642;47.556;18.728;2022-12-24T11:16:01;12.02;;;6.07;;
51248;SDS011;39642;47.556;18.728;2022-12-24T11:18:31;12.48;;;6.32;;
51248;SDS011;39642;47.556;18.728;2022-12-24T11:21:00;12.90;;;5.93;;
51248;SDS011;39642;47.556;18.728;2022-12-24T11:23:28;13.00;;;6.00;;
51248;SDS011;39642;47.556;18.728;2022-12-24T11:25:55;13.18;;;6.18;;
51248;SDS011;39642;47.556;18.728;2022-12-24T11:28:24;14.93;;;6.30;;
51248;SDS011;39642;47.556;18.728;2022-12-24T11:33:21;13.18;;;5.97;;
51248;SDS011;39642;47.556;18.728;2022-12-24T11:35:48;12.45;;;5.95;;
51248;SDS011;39642;47.556;18.728;2022-12-24T11:38:24;13.05;;;6.25;;
51248;SDS011;39642;47.556;18.728;2022-12-24T11:41:01;12.52;;;5.93;;
51248;SDS011;39642;47.556;18.728;2022-12-24T11:43:34;13.05;;;5.95;;
51248;SDS011;39642;47.556;18.728;2022-12-24T11:52:12;12.05;;;5.50;;
51248;SDS011;39642;47.556;18.728;2022-12-24T11:57:36;12.93;;;5.57;;
51248;SDS011;39642;47.556;18.728;2022-12-24T12:00:25;12.30;;;5.68;;
51248;SDS011;39642;47.556;18.728;2022-12-24T12:02:51;12.07;;;5.78;;
51248;SDS011;39642;47.556;18.728;2022-12-24T12:05:26;12.05;;;5.50;;
51248;SDS011;39642;47.556;18.728;2022-12-24T12:08:09;12.63;;;5.68;;
51248;SDS011;39642;47.556;18.728;2022-12-24T12:10:42;12.27;;;5.82;;
51248;SDS011;39642;47.556;18.728;2022-12-24T12:13:11;12.57;;;6.35;;
51248;SDS011;39642;47.556;18.728;2022-12-24T12:15:40;13.85;;;5.72;;
51248;SDS011;39642;47.556;18.728;2022-12-24T12:18:14;12.10;;;5.45;;
51248;SDS011;39642;47.556;18.728;2022-12-24T12:23:12;12.25;;;5.55;;
51248;SDS011;39642;47.556;18.728;2022-12-24T12:25:49;12.45;;;5.65;;
51248;SDS011;39642;47.556;18.728;2022-12-24T12:31:08;11.50;;;5.10;;
51248;SDS011;39642;47.556;18.728;2022-12-24T12:33:54;11.80;;;5.45;;
51248;SDS011;39642;47.556;18.728;2022-12-24T12:36:25;11.82;;;5.18;;
51248;SDS011;39642;47.556;18.728;2022-12-24T12:38:57;12.75;;;5.35;;
51248;SDS011;39642;47.556;18.728;2022-12-24T12:41:29;12.37;;;5.60;;
51248;SDS011;39642;47.556;18.728;2022-12-24T12:50:16;11.70;;;5.30;;
51248;SDS011;39642;47.556;18.728;2022-12-24T12:53:03;11.57;;;5.05;;
51248;SDS011;39642;47.556;18.728;2022-12-24T12:55:54;11.32;;;4.82;;
51248;SDS011;39642;47.556;18.728;2022-12-24T12:58:29;11.15;;;5.12;;
51248;SDS011;39642;47.556;18.728;2022-12-24T13:01:16;12.30;;;5.12;;
51248;SDS011;39642;47.556;18.728;2022-12-24T13:09:53;11.65;;;5.03;;
51248;SDS011;39642;47.556;18.728;2022-12-24T13:20:46;11.02;;;4.55;;
51248;SDS011;39642;47.556;18.728;2022-12-24T13:23:23;11.02;;;4.90;;
51248;SDS011;39642;47.556;18.728;2022-12-24T13:25:52;11.35;;;5.30;;
51248;SDS011;39642;47.556;18.728;2022-12-24T13:30:52;11.98;;;4.72;;
51248;SDS011;39642;47.556;18.728;2022-12-24T13:36:03;11.93;;;4.93;;
51248;SDS011;39642;47.556;18.728;2022-12-24T13:49:40;11.15;;;4.72;;
51248;SDS011;39642;47.556;18.728;2022-12-24T13:54:39;12.75;;;4.53;;
51248;SDS011;39642;47.556;18.728;2022-12-24T13:59:55;10.38;;;4.32;;
51248;SDS011;39642;47.556;18.728;2022-12-24T14:02:24;12.48;;;5.07;;
51248;SDS011;39642;47.556;18.728;2022-12-24T14:04:52;11.65;;;4.72;;
51248;SDS011;39642;47.556;18.728;2022-12-24T14:07:24;10.57;;;4.40;;
51248;SDS011;39642;47.556;18.728;2022-12-24T14:09:50;10.43;;;4.22;;
51248;SDS011;39642;47.556;18.728;2022-12-24T14:12:30;11.25;;;4.72;;
51248;SDS011;39642;47.556;18.728;2022-12-24T14:14:56;11.30;;;4.65;;
51248;SDS011;39642;47.556;18.728;2022-12-24T14:19:55;10.35;;;4.40;;
51248;SDS011;39642;47.556;18.728;2022-12-24T14:22:27;10.73;;;4.53;;
51248;SDS011;39642;47.556;18.728;2022-12-24T14:24:56;10.23;;;4.15;;
51248;SDS011;39642;47.556;18.728;2022-12-24T14:30:07;10.48;;;4.22;;
51248;SDS011;39642;47.556;18.728;2022-12-24T14:32:42;11.07;;;4.53;;
51248;SDS011;39642;47.556;18.728;2022-12-24T14:37:41;10.65;;;4.80;;
51248;SDS011;39642;47.556;18.728;2022-12-24T14:40:15;12.45;;;4.50;;
51248;SDS011;39642;47.556;18.728;2022-12-24T14:46:05;12.50;;;4.40;;
51248;SDS011;39642;47.556;18.728;2022-12-24T14:51:20;12.10;;;4.47;;
51248;SDS011;39642;47.556;18.728;2022-12-24T14:57:05;10.52;;;4.30;;
51248;SDS011;39642;47.556;18.728;2022-12-24T15:02:34;12.27;;;4.70;;
51248;SDS011;39642;47.556;18.728;2022-12-24T15:07:31;11.25;;;4.30;;
51248;SDS011;39642;47.556;18.728;2022-12-24T15:09:59;9.98;;;4.03;;
51248;SDS011;39642;47.556;18.728;2022-12-24T15:12:27;11.48;;;4.50;;
51248;SDS011;39642;47.556;18.728;2022-12-24T15:14:54;10.00;;;3.90;;
51248;SDS011;39642;47.556;18.728;2022-12-24T15:17:20;10.98;;;4.20;;
51248;SDS011;39642;47.556;18.728;2022-12-24T15:19:47;10.15;;;3.87;;
51248;SDS011;39642;47.556;18.728;2022-12-24T15:22:22;12.07;;;4.25;;
51248;SDS011;39642;47.556;18.728;2022-12-24T15:24:52;10.40;;;4.20;;
51248;SDS011;39642;47.556;18.728;2022-12-24T15:27:20;10.82;;;3.80;;
51248;SDS011;39642;47.556;18.728;2022-12-24T15:29:48;11.27;;;4.20;;
51248;SDS011;39642;47.556;18.728;2022-12-24T15:32:17;9.98;;;4.15;;
51248;SDS011;39642;47.556;18.728;2022-12-24T15:34:48;10.90;;;4.25;;
51248;SDS011;39642;47.556;18.728;2022-12-24T15:37:26;9.90;;;4.00;;
51248;SDS011;39642;47.556;18.728;2022-12-24T15:39:56;11.07;;;4.22;;
51248;SDS011;39642;47.556;18.728;2022-12-24T15:42:28;13.00;;;4.25;;
51248;SDS011;39642;47.556;18.728;2022-12-24T15:44:58;10.82;;;4.15;;
51248;SDS011;39642;47.556;18.728;2022-12-24T15:47:32;10.70;;;4.03;;
51248;SDS011;39642;47.556;18.728;2022-12-24T15:50:08;9.98;;;4.00;;
51248;SDS011;39642;47.556;18.728;2022-12-24T15:52:40;10.48;;;3.72;;
51248;SDS011;39642;47.556;18.728;2022-12-24T15:57:53;9.50;;;3.90;;
51248;SDS011;39642;47.556;18.728;2022-12-24T16:00:21;10.18;;;3.70;;
51248;SDS011;39642;47.556;18.728;2022-12-24T16:02:48;11.10;;;3.85;;
51248;SDS011;39642;47.556;18.728;2022-12-24T16:08:02;11.18;;;3.75;;
51248;SDS011;39642;47.556;18.728;2022-12-24T16:10:33;9.57;;;3.87;;
51248;SDS011;39642;47.556;18.728;2022-12-24T16:13:11;9.93;;;4.03;;
51248;SDS011;39642;47.556;18.728;2022-12-24T16:15:58;9.98;;;3.85;;
51248;SDS011;39642;47.556;18.728;2022-12-24T16:21:18;10.82;;;4.15;;
51248;SDS011;39642;47.556;18.728;2022-12-24T16:23:56;9.68;;;3.80;;
51248;SDS011;39642;47.556;18.728;2022-12-24T16:26:31;9.20;;;3.53;;
51248;SDS011;39642;47.556;18.728;2022-12-24T16:28:58;9.13;;;3.47;;
51248;SDS011;39642;47.556;18.728;2022-12-24T16:31:27;10.50;;;3.72;;
51248;SDS011;39642;47.556;18.728;2022-12-24T16:33:57;10.00;;;3.70;;
51248;SDS011;39642;47.556;18.728;2022-12-24T16:36:24;10.13;;;3.55;;
51248;SDS011;39642;47.556;18.728;2022-12-24T16:38:50;9.75;;;3.65;;
51248;SDS011;39642;47.556;18.728;2022-12-24T16:41:34;10.15;;;3.72;;
51248;SDS011;39642;47.556;18.728;2022-12-24T16:44:20;10.02;;;3.47;;
51248;SDS011;39642;47.556;18.728;2022-12-24T16:46:46;10.00;;;3.85;;
51248;SDS011;39642;47.556;18.728;2022-12-24T16:49:14;8.50;;;3.33;;
51248;SDS011;39642;47.556;18.728;2022-12-24T16:51:42;10.35;;;3.95;;
51248;SDS011;39642;47.556;18.728;2022-12-24T16:54:09;10.30;;;4.00;;